Portada
METAR-TAF:

METAR-TAF

Aeropuertos :

Bagdad, Iraq

Aeropuerto Internacional de Bagdad

latitud: 33-15-45N, longitud: 44-14-04E, altitud: 35 m

Observación

El informe se hizo hace 25 minutos, a las 09:30 UTC
Viento 3 kt del norte, variando entre oeste-noroeste y este-noreste
Temperatura 30°C
Humedad 19%
Presión 1013 hPa
Visibilidad 10 km o más
sin nubes por debajo de 1500 m y sin presencia de cumulonimbus.

METAR: ORBI 230930Z 36003KT 300V070 CAVOK 30/04 Q1013

Hora: 12:55 (09:55 UTC)

Pronóstico

El informe se hizo hace 5 horas y 55 minutos, a las 04:00 UTC
Pronóstico válido del 23 a las 06 UTC al 24 a las 06 UTC
Viento 3 kt con dirección variable
Visibilidad: 5000 m

TAF: ORBI 230400Z 2306/2406 VRB03KT 5000 NSC

Observaciones y pronósticos meteorológicos de más de 4000 aeropuertos (mensajes METAR y TAF).

Los puntos amarillos y rojos representan las estaciones disponibles.

Ponga el ratón en el punto deseado para ver el nombre de la estación.

Haga clic para ver las observaciones y los pronósticos meteorológicos.

Para cambiar el mapa : haga clic en los botones verdes con una cruz de color negro para hacer un zoom, en el botón verde con un guión para alejar o en las flechas verdes para mapas adyacentes.


METAR-TAF: